Time;durP1;ratioP1;P1;durP2;ratioP2;P2;SDS_P1;SDS_P2;PMS_P1;PMS_P2;Temp;Humidity;BMP_temperature;BMP_pressure;BME280_temperature;BME280_humidity;BME280_pressure;Samples;Min_cycle;Max_cycle;Signal;HPM_P1;HPM_P2
2022/09/15 00:01:22;;;;;;;20.88;11.43;;;;;;;13.52;100.00;97986.75;5084400;28;20550;-46
2022/09/15 00:03:48;;;;;;;19.13;11.25;;;;;;;13.55;100.00;97991.72;5089312;28;20097;-45
2022/09/15 00:06:15;;;;;;;20.05;11.13;;;;;;;13.56;100.00;97988.19;5121314;27;20036;-43
2022/09/15 00:08:41;;;;;;;21.10;11.52;;;;;;;13.57;100.00;97983.78;5087554;28;20047;-44
2022/09/15 00:11:08;;;;;;;18.95;11.52;;;;;;;13.59;100.00;97994.97;5083667;28;20032;-48
2022/09/15 00:13:35;;;;;;;27.75;12.15;;;;;;;13.56;100.00;97984.75;5087305;28;20132;-46
2022/09/15 00:16:02;;;;;;;25.00;12.32;;;;;;;13.58;100.00;97982.84;5078062;28;20586;-43
2022/09/15 00:18:29;;;;;;;23.48;12.00;;;;;;;13.57;100.00;97989.84;5078278;28;20035;-45
2022/09/15 00:20:54;;;;;;;25.15;12.43;;;;;;;13.56;100.00;97990.78;5078804;28;21917;-43
2022/09/15 00:23:20;;;;;;;24.83;12.88;;;;;;;13.55;100.00;97983.91;5082871;28;20055;-44
2022/09/15 00:25:48;;;;;;;23.75;13.23;;;;;;;13.54;100.00;97981.44;5088175;28;20040;-45
2022/09/15 00:28:16;;;;;;;29.13;13.40;;;;;;;13.53;100.00;97977.13;5088375;28;19935;-46
2022/09/15 00:30:43;;;;;;;29.48;14.23;;;;;;;13.52;100.00;97986.75;5100852;28;20139;-48
2022/09/15 00:33:10;;;;;;;29.77;14.90;;;;;;;13.51;100.00;97979.84;5088713;28;20127;-45
2022/09/15 00:35:40;;;;;;;30.83;15.27;;;;;;;13.51;100.00;97979.03;5087768;28;20462;-47
2022/09/15 00:38:07;;;;;;;35.13;15.30;;;;;;;13.51;100.00;97982.47;5079285;28;20051;-43
2022/09/15 00:40:41;;;;;;;28.60;14.80;;;;;;;13.50;100.00;97978.19;5090117;28;20036;-44
2022/09/15 00:43:09;;;;;;;34.65;16.30;;;;;;;13.50;100.00;97978.19;5089675;28;20075;-44
2022/09/15 00:45:36;;;;;;;29.40;15.10;;;;;;;13.50;100.00;97978.19;5089050;28;20113;-45
2022/09/15 00:48:03;;;;;;;28.88;14.23;;;;;;;13.50;100.00;97977.38;5092543;28;20423;-43
2022/09/15 00:50:30;;;;;;;31.38;14.35;;;;;;;13.49;100.00;97971.31;5086043;28;20089;-49
2022/09/15 00:53:00;;;;;;;27.27;14.05;;;;;;;13.51;100.00;97976.41;5085030;28;20135;-49
2022/09/15 00:55:33;;;;;;;30.85;13.40;;;;;;;13.52;100.00;97978.09;5109518;27;20051;-48
2022/09/15 00:58:07;;;;;;;29.85;13.70;;;;;;;13.49;100.00;97963.50;5104064;28;20047;-49
2022/09/15 01:00:33;;;;;;;30.83;14.82;;;;;;;13.50;100.00;97967.75;5079176;28;20032;-49
2022/09/15 01:02:59;;;;;;;29.52;15.00;;;;;;;13.55;100.00;97975.25;5092807;28;20036;-43
2022/09/15 01:05:30;;;;;;;27.48;14.95;;;;;;;13.54;100.00;97970.97;5070879;28;20101;-43
2022/09/15 01:08:07;;;;;;;32.65;15.20;;;;;;;13.53;100.00;97972.75;5076107;28;20060;-45
2022/09/15 01:10:36;;;;;;;31.42;15.02;;;;;;;13.52;100.00;97973.69;5090146;28;20036;-47
2022/09/15 01:13:05;;;;;;;31.13;15.45;;;;;;;13.53;100.00;97971.91;5071108;28;20047;-47
2022/09/15 01:15:34;;;;;;;;;;;;;;;13.54;100.00;97970.97;5078770;28;20146;-43
2022/09/15 01:18:15;;;;;;;34.80;14.40;;;;;;;13.53;100.00;97975.38;5091653;28;19919;-47
2022/09/15 01:20:58;;;;;;;30.63;15.90;;;;;;;13.54;100.00;97978.81;5073458;28;20058;-44
2022/09/15 01:23:24;;;;;;;30.40;14.88;;;;;;;13.54;100.00;97968.38;5090839;28;20048;-45
2022/09/15 01:26:14;;;;;;;33.80;14.73;;;;;;;13.55;100.00;97970.03;5093677;28;20044;-42
2022/09/15 01:29:06;;;;;;;26.38;12.90;;;;;;;13.56;100.00;97969.06;5070085;28;20075;-43
2022/09/15 01:34:39;;;;;;;33.38;14.13;;;;;;;13.40;100.00;97945.03;5089951;28;20419;-42
2022/09/15 01:37:18;;;;;;;25.80;13.57;;;;;;;13.54;100.00;97955.31;5091260;28;20039;-44
2022/09/15 01:39:45;;;;;;;22.50;13.73;;;;;;;13.57;100.00;97971.56;5056992;28;20454;-43
2022/09/15 01:42:14;;;;;;;25.75;13.50;;;;;;;13.58;100.00;97962.81;5087258;28;20044;-45
2022/09/15 01:44:44;;;;;;;23.00;13.02;;;;;;;13.48;100.00;97945.31;5082778;28;20040;-44
2022/09/15 01:47:12;;;;;;;24.48;13.48;;;;;;;13.60;100.00;97967.94;5088892;28;20602;-46
2022/09/15 01:49:48;;;;;;;23.37;14.13;;;;;;;13.33;100.00;97923.78;5094372;28;20039;-45
2022/09/15 01:52:16;;;;;;;23.17;11.27;;;;;;;13.58;100.00;97960.19;5083693;28;20495;-46
2022/09/15 01:54:47;;;;;;;27.45;13.40;;;;;;;13.64;100.00;97960.69;5093450;28;20523;-45
2022/09/15 01:57:20;;;;;;;24.33;12.98;;;;;;;13.41;100.00;97913.59;5074509;28;20123;-47
2022/09/15 01:59:47;;;;;;;25.13;12.68;;;;;;;13.66;100.00;97957.00;5087352;28;20096;-44
2022/09/15 02:02:19;;;;;;;23.48;12.57;;;;;;;13.37;100.00;97914.78;5088436;28;20046;-45
2022/09/15 02:04:52;;;;;;;24.35;13.20;;;;;;;13.68;100.00;97962.13;5089042;28;20435;-47
2022/09/15 02:07:43;;;;;;;21.83;11.75;;;;;;;13.70;100.00;97957.63;5079536;28;20538;-46
2022/09/15 02:10:33;;;;;;;23.98;12.45;;;;;;;13.70;100.00;97962.84;5088158;28;20047;-45
2022/09/15 02:13:13;;;;;;;22.25;11.82;;;;;;;13.69;100.00;97966.41;5076400;28;20603;-44
2022/09/15 02:15:41;;;;;;;23.30;12.10;;;;;;;13.67;100.00;97966.50;5087326;28;20090;-44
2022/09/15 02:18:09;;;;;;;20.98;11.30;;;;;;;13.67;100.00;97955.22;5078921;28;20028;-45
2022/09/15 02:21:09;;;;;;;24.75;12.85;;;;;;;13.67;100.00;97966.50;5090161;28;20032;-43
2022/09/15 02:23:38;;;;;;;21.05;11.70;;;;;;;13.66;100.00;97959.59;5027415;28;20409;-45
2022/09/15 02:26:05;;;;;;;;;;;;;;;13.66;100.00;97962.22;5089063;28;20064;-43
2022/09/15 02:28:36;;;;;;;23.10;12.05;;;;;;;13.64;100.00;97960.69;5111508;27;19916;-49
2022/09/15 02:31:03;;;;;;;20.65;12.00;;;;;;;13.64;100.00;97951.06;5094607;28;20040;-45
2022/09/15 02:33:34;;;;;;;21.75;11.50;;;;;;;13.65;100.00;97960.56;5089380;28;20112;-46
2022/09/15 02:36:01;;;;;;;33.47;13.10;;;;;;;13.66;100.00;97959.59;5090553;28;20040;-43
2022/09/15 02:38:32;;;;;;;21.30;12.07;;;;;;;13.51;100.00;97929.41;5073230;28;20045;-44
2022/09/15 02:40:58;;;;;;;28.17;12.52;;;;;;;13.69;100.00;97954.19;5085895;28;20044;-44
2022/09/15 02:43:24;;;;;;;20.25;11.20;;;;;;;13.69;100.00;97962.00;5069668;28;20036;-46
2022/09/15 02:45:50;;;;;;;24.98;12.02;;;;;;;13.70;100.00;97957.63;5117694;27;20043;-48
2022/09/15 02:48:16;;;;;;;16.38;10.60;;;;;;;13.57;100.00;97942.84;5077546;28;20048;-49
2022/09/15 02:50:42;;;;;;;25.85;12.50;;;;;;;13.72;100.00;97963.53;5090251;28;20094;-45
2022/09/15 02:53:08;;;;;;;24.27;11.85;;;;;;;13.71;100.00;97947.03;5089513;28;20064;-43
2022/09/15 02:55:34;;;;;;;20.33;10.57;;;;;;;13.73;100.00;97954.78;5090964;28;20499;-48
2022/09/15 02:58:00;;;;;;;15.38;9.90;;;;;;;13.74;100.00;97959.06;5087911;28;20047;-44
2022/09/15 03:00:27;;;;;;;18.13;9.43;;;;;;;13.73;100.00;97954.78;5077399;28;20040;-45
2022/09/15 03:02:54;;;;;;;17.83;8.98;;;;;;;13.74;100.00;97952.06;5089566;28;20181;-45
2022/09/15 03:05:22;;;;;;;15.15;9.25;;;;;;;13.73;100.00;97954.78;5091783;28;20104;-45
2022/09/15 03:07:48;;;;;;;15.82;9.32;;;;;;;13.73;100.00;97954.78;5072193;28;20059;-42
2022/09/15 03:10:15;;;;;;;17.17;9.15;;;;;;;13.74;100.00;97951.22;5088177;28;20044;-45
2022/09/15 03:12:48;;;;;;;14.80;9.73;;;;;;;13.72;100.00;97958.31;5078561;28;20455;-43
2022/09/15 03:15:16;;;;;;;18.08;9.32;;;;;;;13.74;100.00;97961.66;5071896;28;20059;-47
2022/09/15 03:17:43;;;;;;;25.73;12.00;;;;;;;13.72;100.00;97961.78;5078154;28;20055;-43
2022/09/15 03:20:10;;;;;;;15.88;10.00;;;;;;;13.75;100.00;97960.72;5078072;28;20070;-46
2022/09/15 03:22:37;;;;;;;16.63;9.60;;;;;;;13.73;100.00;97955.59;5090128;28;20051;-44
2022/09/15 03:25:04;;;;;;;13.52;9.18;;;;;;;13.76;100.00;97963.22;5091043;28;20055;-44
2022/09/15 03:27:31;;;;;;;17.80;9.07;;;;;;;13.63;100.00;97938.13;5089457;28;20479;-46
2022/09/15 03:29:57;;;;;;;16.42;8.65;;;;;;;13.59;100.00;97932.31;5091408;28;20411;-48
2022/09/15 03:32:23;;;;;;;13.70;8.98;;;;;;;13.78;100.00;97960.47;5104189;28;20043;-48
2022/09/15 03:34:49;;;;;;;13.65;8.85;;;;;;;13.78;100.00;97960.47;5095481;28;20029;-45
2022/09/15 03:37:15;;;;;;;13.90;9.00;;;;;;;13.80;100.00;97953.38;5079632;28;20534;-44
2022/09/15 03:39:40;;;;;;;14.10;8.02;;;;;;;13.79;100.00;97952.53;5089473;28;20119;-45
2022/09/15 03:42:06;;;;;;;15.68;8.80;;;;;;;13.54;100.00;97916.16;5088050;28;20036;-43
2022/09/15 03:44:32;;;;;;;18.67;10.20;;;;;;;13.79;100.00;97960.38;5072673;28;20120;-49
2022/09/15 03:46:58;;;;;;;15.88;9.73;;;;;;;13.80;100.00;97964.66;5069570;28;20076;-49
2022/09/15 03:49:24;;;;;;;18.27;9.68;;;;;;;13.77;100.00;97948.38;5071185;28;20044;-49
2022/09/15 03:51:50;;;;;;;13.80;8.65;;;;;;;13.81;100.00;97955.03;5088832;28;20110;-46
2022/09/15 03:54:16;;;;;;;14.50;9.00;;;;;;;13.84;100.00;97960.03;5086947;28;20805;-43
2022/09/15 03:56:46;;;;;;;13.90;8.95;;;;;;;13.84;100.00;97953.03;5089914;28;20047;-43
2022/09/15 03:59:11;;;;;;;14.05;8.45;;;;;;;13.84;100.00;97949.59;5087331;28;20084;-44
2022/09/15 04:01:38;;;;;;;13.90;8.32;;;;;;;13.86;100.00;97955.53;5088558;28;20104;-45
2022/09/15 04:04:04;;;;;;;16.23;9.38;;;;;;;13.85;100.00;97951.25;5085796;28;20056;-45
2022/09/15 04:06:30;;;;;;;14.35;9.63;;;;;;;13.86;100.00;97955.53;5089496;28;20046;-46
2022/09/15 04:08:58;;;;;;;16.13;9.80;;;;;;;13.87;100.00;97957.22;5088969;28;20562;-45
2022/09/15 04:11:25;;;;;;;15.25;9.15;;;;;;;13.86;100.00;97956.38;5105551;28;20046;-44
2022/09/15 04:13:51;;;;;;;20.30;9.75;;;;;;;13.89;100.00;97958.75;5097905;28;20040;-45
2022/09/15 04:16:18;;;;;;;17.33;10.40;;;;;;;13.90;100.00;97965.63;5078585;28;20123;-45
2022/09/15 04:18:45;;;;;;;20.92;10.07;;;;;;;13.89;100.00;97958.75;5088539;28;20240;-43
2022/09/15 04:21:13;;;;;;;15.80;9.93;;;;;;;13.93;100.00;97960.16;5088822;28;20055;-47
2022/09/15 04:23:40;;;;;;;17.17;9.85;;;;;;;13.91;100.00;97964.69;5088661;28;20044;-51
2022/09/15 04:26:10;;;;;;;22.23;10.65;;;;;;;13.76;100.00;97931.88;5069655;28;20052;-47
2022/09/15 04:28:37;;;;;;;17.88;10.27;;;;;;;13.93;100.00;97964.56;5070091;28;20065;-47
2022/09/15 04:31:04;;;;;;;18.95;10.00;;;;;;;13.95;100.00;97962.66;5086193;28;20044;-44
2022/09/15 04:33:30;;;;;;;18.27;10.60;;;;;;;13.95;100.00;97966.13;5076805;28;20131;-47
2022/09/15 04:36:23;;;;;;;21.95;12.25;;;;;;;13.97;100.00;97966.00;5086193;28;20100;-46
2022/09/15 04:38:49;;;;;;;19.90;10.85;;;;;;;13.97;100.00;97963.41;5086299;28;20055;-46
2022/09/15 04:41:16;;;;;;;16.70;9.63;;;;;;;13.95;100.00;97957.44;5088057;28;20088;-48
2022/09/15 04:43:42;;;;;;;18.23;9.82;;;;;;;13.98;100.00;97965.03;5084528;28;20040;-45
2022/09/15 04:46:08;;;;;;;17.10;9.30;;;;;;;13.98;100.00;97962.44;5088602;28;20092;-42
2022/09/15 04:48:34;;;;;;;17.05;9.65;;;;;;;13.98;100.00;97963.25;5088777;28;20048;-44
2022/09/15 04:51:06;;;;;;;14.85;9.32;;;;;;;13.98;100.00;97954.59;5071078;28;20036;-46
2022/09/15 04:53:31;;;;;;;18.20;9.45;;;;;;;13.97;100.00;97952.94;5077296;28;20115;-47
2022/09/15 04:56:05;;;;;;;14.95;8.82;;;;;;;13.99;100.00;97958.88;5105269;28;20079;-44
2022/09/15 04:58:37;;;;;;;19.88;9.68;;;;;;;13.98;100.00;97957.19;5088450;28;20122;-45
2022/09/15 05:01:14;;;;;;;14.40;9.75;;;;;;;14.00;100.00;97964.00;5068714;28;20063;-48
2022/09/15 05:03:40;;;;;;;16.77;9.63;;;;;;;14.02;100.00;97960.44;5050920;28;20044;-45
2022/09/15 05:06:08;;;;;;;14.77;9.13;;;;;;;13.93;100.00;97946.28;5068569;28;20151;-45
2022/09/15 05:08:34;;;;;;;15.30;10.43;;;;;;;14.08;100.00;97966.00;5091172;28;20043;-44
2022/09/15 05:11:02;;;;;;;14.75;8.88;;;;;;;14.07;100.00;97953.06;5091332;28;20055;-54
2022/09/15 05:13:28;;;;;;;15.50;10.18;;;;;;;14.12;100.00;97964.00;5086281;28;20130;-43
2022/09/15 05:15:53;;;;;;;14.35;9.48;;;;;;;14.11;100.00;97955.34;5086333;28;20476;-44
2022/09/15 05:18:19;;;;;;;18.20;10.88;;;;;;;14.13;100.00;97961.25;5088092;28;20048;-45
2022/09/15 05:20:45;;;;;;;13.23;9.10;;;;;;;14.14;100.00;97965.53;5072450;28;20502;-43
2022/09/15 05:23:11;;;;;;;15.52;9.05;;;;;;;14.11;100.00;97950.09;5093499;28;20051;-44
2022/09/15 05:25:37;;;;;;;15.88;9.68;;;;;;;14.19;100.00;97958.19;5091242;28;20051;-45
2022/09/15 05:28:04;;;;;;;28.75;15.40;;;;;;;14.16;100.00;97953.22;5090492;28;20096;-50
2022/09/15 05:30:30;;;;;;;18.45;10.27;;;;;;;14.21;100.00;97958.91;5089993;28;20040;-43
2022/09/15 05:32:56;;;;;;;14.82;9.32;;;;;;;14.21;100.00;97961.53;5077082;28;20052;-48
2022/09/15 05:35:22;;;;;;;27.00;15.60;;;;;;;14.11;100.00;97933.59;5088784;28;20066;-43
2022/09/15 05:37:48;;;;;;;21.63;13.20;;;;;;;14.31;100.00;97954.63;5091607;28;20496;-47
2022/09/15 05:40:14;;;;;;;16.58;11.10;;;;;;;14.20;100.00;97928.50;5085098;28;20041;-45
2022/09/15 05:42:40;;;;;;;16.77;9.60;;;;;;;14.41;100.00;97952.19;5093026;28;20039;-46
2022/09/15 05:45:06;;;;;;;14.45;9.00;;;;;;;14.46;100.00;97954.44;5084064;28;20048;-44
2022/09/15 05:47:32;;;;;;;16.27;11.05;;;;;;;14.47;100.00;97954.31;5087640;28;20041;-47
2022/09/15 05:49:58;;;;;;;16.83;10.95;;;;;;;14.27;100.00;97915.78;5093550;28;20047;-46
2022/09/15 05:52:24;;;;;;;17.13;11.27;;;;;;;14.57;99.14;97957.03;5133488;27;20522;-44
2022/09/15 05:54:50;;;;;;;12.63;8.85;;;;;;;14.60;98.92;97965.47;5092188;28;20032;-45
2022/09/15 05:57:15;;;;;;;20.15;10.85;;;;;;;14.49;98.57;97936.75;5081189;28;20043;-44
2022/09/15 05:59:42;;;;;;;23.50;12.23;;;;;;;14.68;97.89;97962.28;5073644;28;20058;-44
2022/09/15 06:02:09;;;;;;;17.77;10.60;;;;;;;14.71;97.49;97967.25;5091337;28;20051;-45
2022/09/15 06:04:35;;;;;;;18.80;10.88;;;;;;;14.79;97.02;97967.50;5090580;28;20051;-46
2022/09/15 06:07:01;;;;;;;14.10;8.80;;;;;;;14.90;96.57;97962.25;5090921;28;20040;-45
2022/09/15 06:09:26;;;;;;;14.75;8.65;;;;;;;14.84;95.72;97941.81;5092075;28;20162;-45
2022/09/15 06:11:52;;;;;;;15.20;7.88;;;;;;;15.10;95.42;97969.34;5088358;28;20040;-43
2022/09/15 06:14:18;;;;;;;11.60;7.60;;;;;;;15.19;94.91;97962.53;5091121;28;20244;-43
2022/09/15 06:16:44;;;;;;;12.73;8.15;;;;;;;15.26;94.34;97968.94;5088235;28;20047;-43
2022/09/15 06:19:10;;;;;;;11.15;7.88;;;;;;;15.23;93.64;97954.31;5094562;28;20047;-48
2022/09/15 06:21:36;;;;;;;9.15;7.20;;;;;;;15.32;92.78;97967.63;5090282;28;20500;-45
2022/09/15 06:24:03;;;;;;;11.45;7.28;;;;;;;15.33;92.80;97974.53;5099572;28;20036;-49
2022/09/15 06:26:29;;;;;;;13.00;8.50;;;;;;;15.30;92.56;97967.72;5090533;28;20044;-43
2022/09/15 06:29:00;;;;;;;12.02;7.85;;;;;;;15.15;92.49;97948.88;5089079;28;20100;-45
2022/09/15 06:31:27;;;;;;;14.73;7.88;;;;;;;15.34;92.29;97977.00;5088968;28;20047;-47
2022/09/15 06:33:54;;;;;;;14.50;7.90;;;;;;;15.35;91.92;97972.59;5086831;28;20032;-48
2022/09/15 06:36:22;;;;;;;12.20;7.82;;;;;;;15.48;91.43;97974.13;5084180;28;20431;-46
2022/09/15 06:38:48;;;;;;;12.95;8.25;;;;;;;15.60;90.96;97977.53;5085429;28;20063;-49
2022/09/15 06:41:14;;;;;;;9.32;7.50;;;;;;;15.79;90.34;97976.88;5089676;28;20044;-47
2022/09/15 06:43:48;;;;;;;8.68;6.50;;;;;;;15.90;89.26;97980.25;5088367;28;20046;-50
2022/09/15 06:46:20;;;;;;;17.20;7.65;;;;;;;16.06;88.22;97985.06;5087852;28;20130;-46
2022/09/15 06:48:45;;;;;;;13.15;7.70;;;;;;;16.18;87.85;97984.00;5088886;28;20055;-46
2022/09/15 06:51:12;;;;;;;8.48;6.18;;;;;;;16.27;86.94;97985.03;5090509;28;20519;-47
2022/09/15 06:53:38;;;;;;;17.63;8.85;;;;;;;16.26;86.02;97988.63;5090450;28;20043;-50
2022/09/15 06:56:07;;;;;;;10.88;8.15;;;;;;;16.19;85.44;97990.09;5087612;28;20040;-49
2022/09/15 06:58:37;;;;;;;9.07;6.70;;;;;;;15.99;84.75;97965.56;5088038;28;20118;-51
2022/09/15 07:01:08;;;;;;;8.05;6.60;;;;;;;15.93;83.97;97969.50;5088536;28;20077;-51
2022/09/15 07:03:33;;;;;;;9.27;6.63;;;;;;;16.00;84.11;97990.81;5081033;28;20118;-52
2022/09/15 07:05:59;;;;;;;14.20;6.68;;;;;;;16.01;83.96;97998.56;5089257;28;20506;-49
2022/09/15 07:08:25;;;;;;;10.10;6.47;;;;;;;16.05;83.60;97991.25;5089749;28;20044;-47
2022/09/15 07:10:51;;;;;;;10.35;6.57;;;;;;;16.17;83.51;97998.09;5089898;28;20040;-48
2022/09/15 07:13:17;;;;;;;10.38;6.90;;;;;;;16.30;83.18;97996.09;5088924;28;20042;-48
2022/09/15 07:15:56;;;;;;;9.38;6.45;;;;;;;16.33;82.81;97990.56;5088997;28;20499;-51
2022/09/15 07:18:22;;;;;;;9.20;6.78;;;;;;;16.21;82.60;97972.44;5067800;28;20061;-48
2022/09/15 07:20:49;;;;;;;10.43;7.25;;;;;;;16.36;81.89;97997.38;5088452;28;20149;-48
2022/09/15 07:23:15;;;;;;;16.13;7.22;;;;;;;16.21;81.59;98003.91;5088890;28;20507;-49
2022/09/15 07:25:43;;;;;;;21.77;7.50;;;;;;;15.91;81.60;98000.25;5089989;28;20039;-47
2022/09/15 07:28:15;;;;;;;23.77;8.57;;;;;;;15.79;82.31;98001.28;5089789;28;20040;-49
2022/09/15 07:30:42;;;;;;;23.05;8.23;;;;;;;15.82;82.70;98002.81;5085477;28;20040;-49
2022/09/15 07:33:09;;;;;;;17.65;6.85;;;;;;;15.90;82.87;98003.84;5088310;28;20130;-47
2022/09/15 07:35:42;;;;;;;10.93;5.80;;;;;;;15.75;82.72;98002.50;5087341;28;20043;-49
2022/09/15 07:38:09;;;;;;;13.65;5.40;;;;;;;15.68;82.88;98001.31;5087112;28;20618;-50
2022/09/15 07:40:36;;;;;;;9.85;5.80;;;;;;;15.48;83.60;98008.16;5076939;28;20047;-48
2022/09/15 07:43:03;;;;;;;9.80;5.72;;;;;;;15.32;83.76;98002.50;5087625;28;20048;-48
2022/09/15 07:45:30;;;;;;;13.20;5.72;;;;;;;15.20;84.62;98004.28;5088178;28;20040;-52
2022/09/15 07:47:56;;;;;;;8.20;5.13;;;;;;;15.05;84.95;98005.53;5086807;28;20151;-48
2022/09/15 07:50:22;;;;;;;8.77;6.20;;;;;;;15.00;85.35;98006.84;5088845;28;20059;-49
2022/09/15 07:52:48;;;;;;;7.32;5.45;;;;;;;14.98;85.75;98011.34;5085438;28;20671;-50
2022/09/15 07:55:14;;;;;;;11.18;5.32;;;;;;;14.95;85.91;98011.59;5079254;28;20040;-51
2022/09/15 07:57:40;;;;;;;7.45;5.72;;;;;;;15.02;85.65;98016.22;5075063;28;20031;-51
2022/09/15 08:00:06;;;;;;;6.72;4.95;;;;;;;15.15;85.79;98008.25;5087398;28;20036;-46
2022/09/15 08:02:38;;;;;;;8.30;5.25;;;;;;;15.38;84.39;98012.47;5089533;28;20044;-45
2022/09/15 08:05:04;;;;;;;10.65;5.57;;;;;;;15.56;83.91;98013.63;5071265;28;20048;-49
2022/09/15 08:07:30;;;;;;;10.63;6.05;;;;;;;15.77;82.87;98008.41;5089540;28;20055;-48
2022/09/15 08:09:56;;;;;;;11.02;5.88;;;;;;;16.01;81.74;98016.06;5081480;28;20744;-52
2022/09/15 08:12:22;;;;;;;7.85;5.13;;;;;;;16.24;80.99;98012.34;5085725;28;20122;-46
2022/09/15 08:14:48;;;;;;;9.25;5.93;;;;;;;16.34;79.83;98013.22;5085479;28;20044;-52
2022/09/15 08:17:13;;;;;;;14.18;6.18;;;;;;;16.54;79.49;98016.78;5089201;28;20453;-54
2022/09/15 08:19:39;;;;;;;9.98;5.70;;;;;;;16.50;78.72;98007.50;5070690;28;20562;-53
2022/09/15 08:22:05;;;;;;;10.45;5.95;;;;;;;16.26;78.81;98018.31;5089309;28;20067;-51
2022/09/15 08:24:31;;;;;;;11.60;5.55;;;;;;;15.78;79.37;97978.66;5087190;28;20109;-48
2022/09/15 08:26:57;;;;;;;8.45;5.20;;;;;;;16.01;79.66;98013.44;5086073;28;20082;-50
2022/09/15 08:29:23;;;;;;;9.95;5.47;;;;;;;16.04;79.55;98010.56;5085194;28;20422;-50
2022/09/15 08:31:49;;;;;;;8.93;6.30;;;;;;;16.17;78.97;98013.84;5070853;28;20055;-48
2022/09/15 08:34:15;;;;;;;10.43;6.43;;;;;;;16.33;78.65;98019.44;5087153;28;20044;-48
2022/09/15 08:36:42;;;;;;;10.75;6.97;;;;;;;16.32;77.50;98016.97;5087323;28;20673;-53
2022/09/15 08:39:07;;;;;;;8.48;5.70;;;;;;;16.17;77.72;98013.00;5087311;28;20169;-53
2022/09/15 08:41:45;;;;;;;11.98;5.35;;;;;;;16.37;77.79;98022.66;5069321;28;20051;-49
2022/09/15 08:44:26;;;;;;;8.68;5.18;;;;;;;16.47;76.99;98015.66;5067662;28;20129;-47
2022/09/15 08:47:05;;;;;;;11.13;5.50;;;;;;;16.19;76.86;98021.56;5089086;28;20051;-47
2022/09/15 08:49:43;;;;;;;;;;;;;;;16.02;77.77;98012.47;5073061;28;20139;-48
2022/09/15 08:52:16;;;;;;;7.50;5.07;;;;;;;15.79;78.32;98000.44;5069168;28;19947;-53
2022/09/15 08:54:42;;;;;;;12.73;5.45;;;;;;;15.95;78.25;98020.03;5069116;28;20515;-53
2022/09/15 08:57:13;;;;;;;7.63;5.32;;;;;;;15.67;78.57;97997.03;5071765;28;20066;-47
2022/09/15 08:59:39;;;;;;;7.05;4.70;;;;;;;15.57;78.81;98014.47;5122013;27;20400;-48
2022/09/15 09:02:10;;;;;;;10.85;5.28;;;;;;;15.31;80.57;98021.78;5087501;28;20046;-48
2022/09/15 09:04:55;;;;;;;9.73;4.78;;;;;;;15.06;81.71;98024.69;5092920;28;20067;-47
2022/09/15 09:07:59;;;;;;;9.95;3.60;;;;;;;14.91;82.60;98031.13;5092877;28;20404;-53
2022/09/15 09:10:35;;;;;;;7.47;4.15;;;;;;;14.84;83.31;98036.00;5072710;28;20044;-49
2022/09/15 09:13:26;;;;;;;9.32;4.47;;;;;;;14.78;83.78;98032.06;5076259;28;20060;-50
2022/09/15 09:16:21;;;;;;;10.02;4.47;;;;;;;14.93;83.88;98032.66;5121421;27;20052;-51
2022/09/15 09:19:03;;;;;;;5.82;3.88;;;;;;;15.06;83.53;98032.53;5044929;28;20423;-50
2022/09/15 09:21:29;;;;;;;8.85;3.92;;;;;;;14.97;83.38;98036.69;5076796;28;20105;-48
2022/09/15 09:24:05;;;;;;;5.45;3.05;;;;;;;14.80;83.99;98022.31;5092478;28;20043;-48
2022/09/15 09:26:34;;;;;;;6.50;3.28;;;;;;;14.81;84.67;98042.28;5076318;28;20048;-47
2022/09/15 09:29:17;;;;;;;6.90;3.42;;;;;;;14.86;85.45;98048.97;5087548;28;20076;-47
2022/09/15 09:31:46;;;;;;;4.05;2.53;;;;;;;14.94;84.34;98036.09;5071988;28;20067;-50
2022/09/15 09:34:37;;;;;;;13.68;2.85;;;;;;;15.00;84.43;98044.31;5070852;28;20032;-50
2022/09/15 09:37:14;;;;;;;6.93;3.25;;;;;;;14.93;84.28;98044.91;5071308;28;20040;-47
2022/09/15 09:39:40;;;;;;;5.57;2.90;;;;;;;14.93;84.20;98050.13;5072081;28;20033;-50
2022/09/15 09:42:06;;;;;;;7.47;3.05;;;;;;;14.90;83.93;98048.59;5070826;28;20048;-51
2022/09/15 09:44:32;;;;;;;8.48;3.30;;;;;;;14.80;84.38;98050.25;5072679;28;20040;-48
2022/09/15 09:46:59;;;;;;;5.80;2.70;;;;;;;14.66;84.14;98046.09;5090906;28;20063;-49
2022/09/15 09:49:28;;;;;;;4.38;3.38;;;;;;;14.53;85.06;98050.59;5092151;28;20422;-50
2022/09/15 09:51:58;;;;;;;6.85;2.97;;;;;;;14.55;85.35;98046.06;5092084;28;20127;-50
2022/09/15 09:54:29;;;;;;;8.35;3.15;;;;;;;14.54;85.65;98054.06;5092147;28;20126;-49
2022/09/15 09:57:19;;;;;;;8.82;3.10;;;;;;;14.41;85.37;98033.22;5090261;28;20028;-47
2022/09/15 09:59:45;;;;;;;;;;;;;;;14.56;85.36;98059.97;5091196;28;20109;-50
2022/09/15 10:02:14;;;;;;;7.00;2.70;;;;;;;14.57;85.47;98065.09;5087038;28;19923;-49
2022/09/15 10:05:06;;;;;;;14.68;3.30;;;;;;;14.54;85.97;98064.50;5075722;28;20112;-47
2022/09/15 10:07:33;;;;;;;10.02;3.08;;;;;;;14.62;85.37;98055.13;5082584;28;20541;-51
2022/09/15 10:10:00;;;;;;;9.23;2.72;;;;;;;14.69;85.40;98058.94;5090603;28;20063;-49
2022/09/15 10:12:31;;;;;;;4.10;2.20;;;;;;;14.81;84.57;98057.16;5091374;28;20435;-50
2022/09/15 10:15:03;;;;;;;3.13;1.83;;;;;;;14.81;84.01;98057.16;5089915;28;20062;-48
2022/09/15 10:17:43;;;;;;;4.25;1.90;;;;;;;14.95;83.58;98061.31;5090377;28;20044;-46
2022/09/15 10:20:48;;;;;;;3.75;2.88;;;;;;;15.22;82.08;98060.00;5089979;28;20039;-53
2022/09/15 10:23:17;;;;;;;2.50;1.75;;;;;;;15.22;81.36;98061.78;5078420;28;20051;-51
2022/09/15 10:25:44;;;;;;;5.03;2.10;;;;;;;15.22;81.37;98061.78;5078581;28;20036;-51
2022/09/15 10:28:11;;;;;;;2.97;2.00;;;;;;;15.30;80.77;98067.22;5069753;28;20420;-52
2022/09/15 10:30:38;;;;;;;3.97;2.42;;;;;;;15.12;81.23;98064.28;5079183;28;20040;-51
2022/09/15 10:33:25;;;;;;;3.13;2.25;;;;;;;14.98;81.72;98064.53;5091451;28;20044;-51
2022/09/15 10:35:52;;;;;;;4.03;2.47;;;;;;;14.79;82.42;98059.91;5076163;28;20032;-48
2022/09/15 10:38:29;;;;;;;3.45;2.20;;;;;;;14.90;82.68;98071.31;5052996;28;20128;-50
2022/09/15 10:41:11;;;;;;;6.65;2.45;;;;;;;14.74;83.07;98074.28;5087021;28;20508;-52
2022/09/15 10:43:55;;;;;;;2.63;1.77;;;;;;;14.61;83.64;98079.59;5073189;28;20044;-49
2022/09/15 10:46:38;;;;;;;5.53;2.38;;;;;;;14.51;84.35;98073.41;5076866;28;20032;-49
2022/09/15 10:49:19;;;;;;;4.22;2.40;;;;;;;14.51;84.47;98072.56;5086394;28;20504;-49
2022/09/15 10:52:23;;;;;;;3.90;2.28;;;;;;;14.58;84.64;98074.63;5077192;28;20497;-47
2022/09/15 10:55:21;;;;;;;4.07;2.80;;;;;;;14.44;85.12;98079.22;5090727;28;20032;-50
2022/09/15 10:58:01;;;;;;;3.15;2.10;;;;;;;14.41;85.72;98080.28;5049407;28;20064;-50
2022/09/15 11:00:35;;;;;;;4.95;2.70;;;;;;;14.38;85.72;98078.75;5088428;28;20048;-46
2022/09/15 11:03:40;;;;;;;3.55;2.10;;;;;;;14.37;85.71;98086.69;5088864;28;20036;-52
2022/09/15 11:06:25;;;;;;;6.95;2.78;;;;;;;14.31;86.26;98082.72;5089437;28;20048;-53
2022/09/15 11:09:14;;;;;;;3.83;2.70;;;;;;;14.39;85.85;98090.03;5090446;28;20086;-49
2022/09/15 11:11:43;;;;;;;5.32;3.00;;;;;;;14.31;86.43;98097.56;5074619;28;20119;-47
2022/09/15 11:14:28;;;;;;;6.72;3.08;;;;;;;14.17;87.17;98090.78;5089605;28;20054;-49
2022/09/15 11:17:12;;;;;;;8.95;3.80;;;;;;;14.04;87.71;98102.22;5089490;28;20071;-51
2022/09/15 11:20:28;;;;;;;10.73;4.07;;;;;;;13.90;88.51;98100.63;5089538;28;20043;-51
2022/09/15 11:23:00;;;;;;;5.47;4.00;;;;;;;13.85;88.99;98102.75;5011119;28;20068;-53
2022/09/15 11:25:32;;;;;;;11.35;4.63;;;;;;;13.95;88.84;98101.97;5041049;28;20577;-52
2022/09/15 11:28:10;;;;;;;5.65;3.88;;;;;;;13.95;88.88;98106.38;5074013;28;20047;-52
2022/09/15 11:30:41;;;;;;;8.25;4.10;;;;;;;13.86;88.69;98101.81;5088299;28;20035;-54
2022/09/15 11:33:16;;;;;;;5.63;3.92;;;;;;;13.87;88.93;98103.50;5085264;28;20051;-53
2022/09/15 11:36:13;;;;;;;9.05;3.50;;;;;;;13.79;88.92;98111.88;5068175;28;20475;-54
2022/09/15 11:38:46;;;;;;;6.30;3.85;;;;;;;13.58;89.53;98085.53;5093121;28;20051;-53
2022/09/15 11:41:18;;;;;;;4.85;3.50;;;;;;;13.65;90.06;98114.66;5098490;28;20047;-52